EGAC/BHD METAR and TAF weather

Enter ICAO airport designator
Station Type Date Time Source
EGAC METAR 2023/10/03 09:50 UTC NOAA

EGAC 030950Z AUTO 25009KT 220V290 9999 FEW017 BKN023 BKN028 13/10 Q1013


Station Type Date Time Source
EGAC Decoded METAR 2023/10/03 09:50 UTC NOAA

Belfast / Harbour, United Kingdom (EGAC) 54-36N 005-53W 0M
Oct 03, 2023 - 05:50 AM EDT / 2023.10.03 0950 UTC
Wind: from the WSW (250 degrees) at 10 MPH (9 KT) (direction variable):0
Visibility: greater than 7 mile(s):0
Sky conditions: mostly cloudy
Temperature: 55 F (13 C)
Dew Point: 50 F (10 C)
Relative Humidity: 81%
Pressure (altimeter): 29.91 in. Hg (1013 hPa)
ob: EGAC 030950Z AUTO 25009KT 220V290 9999 FEW017 BKN023 BKN028 13/10 Q1013
cycle: 10

Station Type Date Time Source
EGAC TAF 2021/12/01 18:06 UTC NOAA

TAF TAF EGAC 010102Z 3018/0103 CNL

Example: see airport list